Time;durP1;ratioP1;P1;durP2;ratioP2;P2;SDS_P1;SDS_P2;PMS_P1;PMS_P2;Temp;Humidity;BMP_temperature;BMP_pressure;BME280_temperature;BME280_humidity;BME280_pressure;Samples;Min_cycle;Max_cycle;Signal;HPM_P1;HPM_P2
2023/07/18 00:01:43;;;;;;;17.08;7.78;;;25.50;99.90;;;;;;5091057;28;20051;-55
2023/07/18 00:04:47;;;;;;;16.35;6.63;;;25.40;99.90;;;;;;5089792;28;20521;-57
2023/07/18 00:07:51;;;;;;;13.98;7.07;;;25.40;99.90;;;;;;5090970;28;20047;-57
2023/07/18 00:10:55;;;;;;;13.65;6.85;;;25.20;99.90;;;;;;5090573;28;20043;-57
2023/07/18 00:13:59;;;;;;;16.35;6.68;;;25.10;99.90;;;;;;5090742;28;20059;-54
2023/07/18 00:17:04;;;;;;;11.43;6.60;;;25.00;99.90;;;;;;5090874;28;20043;-53
2023/07/18 00:20:17;;;;;;;16.45;6.65;;;24.90;99.90;;;;;;5090194;28;20047;-54
2023/07/18 00:23:21;;;;;;;13.95;6.60;;;24.90;99.90;;;;;;5090363;28;20406;-53
2023/07/18 00:26:25;;;;;;;17.88;5.43;;;24.90;99.90;;;;;;5090319;28;20050;-55
2023/07/18 00:29:29;;;;;;;12.25;5.32;;;24.80;99.90;;;;;;5089505;28;20521;-56
2023/07/18 00:32:33;;;;;;;13.25;5.85;;;24.90;99.90;;;;;;5089398;28;20051;-56
2023/07/18 00:35:37;;;;;;;12.40;5.47;;;24.80;99.90;;;;;;5089722;28;20058;-56
2023/07/18 00:38:42;;;;;;;11.98;4.70;;;24.80;99.90;;;;;;5089839;28;20050;-56
2023/07/18 00:41:46;;;;;;;11.90;4.68;;;24.80;99.90;;;;;;5090597;28;20043;-57
2023/07/18 00:44:51;;;;;;;13.30;4.80;;;24.80;99.90;;;;;;5089499;28;20418;-54
2023/07/18 00:47:56;;;;;;;11.20;5.40;;;24.90;99.90;;;;;;5089484;28;20039;-55
2023/07/18 00:51:01;;;;;;;9.90;5.15;;;24.90;99.90;;;;;;5090442;28;20051;-57
2023/07/18 00:54:05;;;;;;;10.82;5.05;;;24.90;99.90;;;;;;5090534;28;20054;-57
2023/07/18 00:57:11;;;;;;;13.10;4.13;;;24.90;99.90;;;;;;5090737;28;20498;-53
2023/07/18 01:00:16;;;;;;;15.43;3.75;;;24.80;99.90;;;;;;5089734;28;20042;-56
2023/07/18 01:03:23;;;;;;;12.52;3.78;;;24.80;99.90;;;;;;5089784;28;20047;-57
2023/07/18 01:06:28;;;;;;;10.38;3.38;;;24.80;99.90;;;;;;5089475;28;20043;-55
2023/07/18 01:09:32;;;;;;;13.85;3.63;;;24.80;99.30;;;;;;5089738;28;20441;-56
2023/07/18 01:12:36;;;;;;;11.70;3.35;;;24.80;98.60;;;;;;5090317;28;20050;-53
2023/07/18 01:15:40;;;;;;;11.40;3.00;;;24.90;98.20;;;;;;5089903;28;20043;-53
2023/07/18 01:18:44;;;;;;;8.57;3.08;;;24.90;97.90;;;;;;5090267;28;20051;-55
2023/07/18 01:21:48;;;;;;;11.77;3.15;;;24.90;97.30;;;;;;5090046;28;20051;-53
2023/07/18 01:24:53;;;;;;;14.45;3.42;;;24.90;97.90;;;;;;5089233;28;20043;-57
2023/07/18 01:27:59;;;;;;;12.55;3.60;;;24.90;97.90;;;;;;5090106;28;20047;-56
2023/07/18 01:31:05;;;;;;;11.80;3.67;;;24.80;98.70;;;;;;5089955;28;20071;-53
2023/07/18 01:34:09;;;;;;;8.27;3.72;;;24.80;97.80;;;;;;5092969;28;20051;-56
2023/07/18 01:37:15;;;;;;;10.15;3.80;;;24.70;99.80;;;;;;5093373;28;20043;-56
2023/07/18 01:40:20;;;;;;;13.82;4.40;;;24.50;99.90;;;;;;5092968;28;20414;-56
2023/07/18 01:43:24;;;;;;;14.15;3.90;;;24.40;99.90;;;;;;5092583;28;20039;-56
2023/07/18 01:46:28;;;;;;;15.32;4.20;;;24.30;99.90;;;;;;5093449;28;20062;-53
2023/07/18 01:49:35;;;;;;;12.40;4.85;;;24.20;99.90;;;;;;5092380;28;20051;-55
2023/07/18 01:52:39;;;;;;;9.35;3.70;;;24.10;99.90;;;;;;5093109;28;20047;-52
2023/07/18 01:55:43;;;;;;;15.93;4.28;;;24.00;99.90;;;;;;5093500;28;20043;-56
2023/07/18 01:58:47;;;;;;;14.15;4.85;;;24.00;99.90;;;;;;5092593;28;20047;-56
2023/07/18 02:01:51;;;;;;;14.70;3.90;;;24.00;99.90;;;;;;5091721;28;20414;-56
2023/07/18 02:04:58;;;;;;;12.32;4.07;;;23.90;99.90;;;;;;5072140;28;20063;-52
2023/07/18 02:08:02;;;;;;;7.78;3.65;;;23.90;99.90;;;;;;5072470;28;20044;-53
2023/07/18 02:11:06;;;;;;;10.45;3.72;;;23.90;99.90;;;;;;5072215;28;20051;-55
2023/07/18 02:14:10;;;;;;;16.52;4.85;;;23.90;99.90;;;;;;5073310;28;20040;-56
2023/07/18 02:17:14;;;;;;;12.90;4.35;;;23.90;99.90;;;;;;5073070;28;20060;-57
2023/07/18 02:20:18;;;;;;;12.98;5.05;;;23.90;99.90;;;;;;5073539;28;20043;-54
2023/07/18 02:23:22;;;;;;;16.13;5.78;;;24.00;99.90;;;;;;5073273;28;20051;-57
2023/07/18 02:26:26;;;;;;;10.95;5.50;;;24.00;99.90;;;;;;5072068;28;20059;-57
2023/07/18 02:29:31;;;;;;;11.95;5.20;;;24.00;99.90;;;;;;5072084;28;20043;-52
2023/07/18 02:32:35;;;;;;;13.70;5.65;;;24.00;99.90;;;;;;5072075;28;20415;-56
2023/07/18 02:35:38;;;;;;;13.65;6.22;;;24.00;99.90;;;;;;5072883;28;20514;-56
2023/07/18 02:38:42;;;;;;;16.40;6.38;;;24.00;99.90;;;;;;5060414;28;20060;-52
2023/07/18 02:41:46;;;;;;;16.88;6.25;;;24.00;99.90;;;;;;5060237;28;20054;-54
2023/07/18 02:44:50;;;;;;;17.88;6.28;;;23.90;99.90;;;;;;5072631;28;20043;-56
2023/07/18 02:47:54;;;;;;;10.25;6.15;;;23.90;99.90;;;;;;5071487;28;20047;-54
2023/07/18 02:50:58;;;;;;;20.00;6.28;;;23.80;99.90;;;;;;5071561;28;20418;-53
2023/07/18 02:54:03;;;;;;;13.35;5.93;;;23.80;99.90;;;;;;5071683;28;20407;-57
2023/07/18 02:57:07;;;;;;;15.95;5.90;;;23.60;99.90;;;;;;5071937;28;20507;-53
2023/07/18 03:00:19;;;;;;;14.07;5.82;;;23.50;99.90;;;;;;5071548;28;20403;-58
2023/07/18 03:03:24;;;;;;;12.15;5.68;;;23.50;99.90;;;;;;5072140;28;20051;-55
2023/07/18 03:06:29;;;;;;;12.90;4.88;;;23.30;99.90;;;;;;5071876;28;20042;-52
2023/07/18 03:09:34;;;;;;;18.23;5.50;;;23.20;99.90;;;;;;5071280;28;20047;-53
2023/07/18 03:12:40;;;;;;;10.55;5.10;;;23.20;99.90;;;;;;5070842;28;20044;-53
2023/07/18 03:15:44;;;;;;;13.45;4.70;;;23.10;99.90;;;;;;5078936;28;20046;-57
2023/07/18 03:18:48;;;;;;;9.07;5.60;;;23.00;99.90;;;;;;5087000;28;20051;-55
2023/07/18 03:21:52;;;;;;;11.30;5.05;;;22.90;99.90;;;;;;5091847;28;20053;-53
2023/07/18 03:25:05;;;;;;;17.85;5.55;;;22.80;99.90;;;;;;5091102;28;20047;-54
2023/07/18 03:28:09;;;;;;;23.33;6.35;;;22.80;99.90;;;;;;5091601;28;20051;-56
2023/07/18 03:31:13;;;;;;;12.25;6.03;;;22.70;99.90;;;;;;5091323;28;20047;-58
2023/07/18 03:34:17;;;;;;;11.73;5.70;;;22.70;99.90;;;;;;5091285;28;20050;-56
2023/07/18 03:37:25;;;;;;;15.82;6.30;;;22.60;99.90;;;;;;5091427;28;20051;-53
2023/07/18 03:40:28;;;;;;;12.43;6.50;;;22.50;99.90;;;;;;5091536;28;20055;-58
2023/07/18 03:43:32;;;;;;;18.65;7.30;;;22.30;99.90;;;;;;5091407;28;20039;-55
2023/07/18 03:46:36;;;;;;;13.20;6.63;;;22.30;99.90;;;;;;5091326;28;20244;-57
2023/07/18 03:49:40;;;;;;;19.40;8.20;;;22.30;99.90;;;;;;5091368;28;20106;-56
2023/07/18 03:52:44;;;;;;;15.55;8.35;;;22.20;99.90;;;;;;5091114;28;20039;-53
2023/07/18 03:55:48;;;;;;;20.75;7.82;;;22.10;99.90;;;;;;5091016;28;20062;-57
2023/07/18 03:58:52;;;;;;;15.85;7.60;;;22.10;99.90;;;;;;5090980;28;20435;-57
2023/07/18 04:01:56;;;;;;;18.80;7.93;;;22.20;99.90;;;;;;5091038;28;20051;-54
2023/07/18 04:05:00;;;;;;;13.68;7.03;;;22.20;99.90;;;;;;5091175;28;20058;-54
2023/07/18 04:08:04;;;;;;;18.58;7.00;;;22.30;99.90;;;;;;5090829;28;20055;-55
2023/07/18 04:11:08;;;;;;;22.55;6.25;;;22.40;99.90;;;;;;5090980;28;20047;-53
2023/07/18 04:14:13;;;;;;;13.80;6.38;;;22.50;99.90;;;;;;5090897;28;20043;-54
2023/07/18 04:17:16;;;;;;;14.40;6.60;;;22.60;99.90;;;;;;5090839;28;20043;-56
2023/07/18 04:20:21;;;;;;;18.08;7.78;;;22.60;99.90;;;;;;5090875;28;20047;-56
2023/07/18 04:23:25;;;;;;;13.82;6.78;;;22.40;99.90;;;;;;5090531;28;20051;-54
2023/07/18 04:26:30;;;;;;;20.88;8.00;;;22.40;99.90;;;;;;5090719;28;20055;-54
2023/07/18 04:29:34;;;;;;;12.27;7.72;;;22.40;99.90;;;;;;5090423;28;20054;-56
2023/07/18 04:32:38;;;;;;;15.98;8.15;;;22.30;99.90;;;;;;5083440;28;20046;-56
2023/07/18 04:35:43;;;;;;;13.02;7.18;;;22.40;99.90;;;;;;5070398;28;20349;-53
2023/07/18 04:38:47;;;;;;;12.00;7.55;;;22.60;99.90;;;;;;5069872;28;20044;-57
2023/07/18 04:41:51;;;;;;;13.68;6.60;;;22.70;99.90;;;;;;5069998;28;20040;-53
2023/07/18 04:44:55;;;;;;;14.13;6.85;;;23.10;99.90;;;;;;5069729;28;20052;-54
2023/07/18 04:47:59;;;;;;;19.65;7.38;;;24.30;99.90;;;;;;5069751;28;20038;-57
2023/07/18 04:51:03;;;;;;;11.65;6.53;;;25.60;99.90;;;;;;5069671;28;20052;-57
2023/07/18 04:54:08;;;;;;;14.85;6.63;;;26.70;99.90;;;;;;5068852;28;20051;-53
2023/07/18 04:57:13;;;;;;;16.73;6.65;;;27.40;99.90;;;;;;5070036;28;20048;-52
2023/07/18 05:00:17;;;;;;;15.98;7.00;;;27.50;99.90;;;;;;5069965;28;20052;-52
2023/07/18 05:03:24;;;;;;;17.52;8.13;;;27.50;99.90;;;;;;5069596;28;20044;-54
2023/07/18 05:06:28;;;;;;;17.38;7.22;;;27.30;99.90;;;;;;5068781;28;20044;-57
2023/07/18 05:09:32;;;;;;;17.92;6.80;;;27.30;99.90;;;;;;5069992;28;20051;-52
2023/07/18 05:12:36;;;;;;;14.38;7.05;;;27.30;99.90;;;;;;5069654;28;20044;-52
2023/07/18 05:15:43;;;;;;;18.30;6.10;;;27.70;99.90;;;;;;5070132;28;20040;-53
2023/07/18 05:18:47;;;;;;;13.07;5.65;;;28.40;99.90;;;;;;5069346;28;20040;-53
2023/07/18 05:21:51;;;;;;;19.38;5.95;;;29.20;99.90;;;;;;5069462;28;20526;-56
2023/07/18 05:24:55;;;;;;;22.95;6.45;;;30.20;99.90;;;;;;5069537;28;20111;-54
2023/07/18 05:27:59;;;;;;;17.85;5.65;;;31.20;99.90;;;;;;5069680;28;20059;-52
2023/07/18 05:31:09;;;;;;;15.57;5.32;;;31.70;99.90;;;;;;5069363;28;20040;-53
2023/07/18 05:34:14;;;;;;;16.70;6.07;;;32.20;99.90;;;;;;5069381;28;20043;-54
2023/07/18 05:37:18;;;;;;;18.02;6.30;;;32.70;99.30;;;;;;5069545;28;20055;-53
2023/07/18 05:40:23;;;;;;;20.80;6.30;;;32.10;99.80;;;;;;5069087;28;20051;-55
2023/07/18 05:43:27;;;;;;;16.17;5.20;;;31.50;99.90;;;;;;5069390;28;20055;-53
2023/07/18 05:46:31;;;;;;;19.10;6.47;;;32.00;99.90;;;;;;5081353;28;20043;-56
2023/07/18 05:49:35;;;;;;;15.20;5.68;;;32.70;99.50;;;;;;5082818;28;20059;-53
2023/07/18 05:52:39;;;;;;;11.38;5.90;;;33.60;98.80;;;;;;5089374;28;20055;-54
2023/07/18 05:55:43;;;;;;;12.52;6.00;;;34.10;98.00;;;;;;5089530;28;20043;-56
2023/07/18 05:58:47;;;;;;;14.15;6.13;;;33.50;98.10;;;;;;5089378;28;20046;-56
2023/07/18 06:01:51;;;;;;;21.92;6.53;;;33.30;98.10;;;;;;5089158;28;20047;-52
2023/07/18 06:04:55;;;;;;;11.68;5.97;;;32.50;98.80;;;;;;5089684;28;20054;-53
2023/07/18 06:07:59;;;;;;;12.15;6.22;;;31.20;99.90;;;;;;5089714;28;20501;-51
2023/07/18 06:11:02;;;;;;;17.70;6.13;;;31.30;99.90;;;;;;5087686;28;20027;-56
2023/07/18 06:14:06;;;;;;;19.60;5.88;;;31.10;99.90;;;;;;5074805;28;20054;-55
2023/07/18 06:17:10;;;;;;;16.30;6.18;;;31.70;99.90;;;;;;5070605;28;20043;-53
2023/07/18 06:20:15;;;;;;;12.77;6.13;;;32.30;99.90;;;;;;5072390;28;20534;-52
2023/07/18 06:23:18;;;;;;;15.70;6.75;;;30.70;99.90;;;;;;5073382;28;20044;-54
2023/07/18 06:26:22;;;;;;;16.00;6.22;;;31.80;99.90;;;;;;5073036;28;20048;-52
2023/07/18 06:29:26;;;;;;;18.27;5.47;;;31.80;99.90;;;;;;5073749;28;20043;-55
2023/07/18 06:32:30;;;;;;;14.50;5.95;;;32.50;99.90;;;;;;5078417;28;20078;-55
2023/07/18 06:35:35;;;;;;;17.25;5.88;;;32.90;99.80;;;;;;5073656;28;20052;-54
2023/07/18 06:38:39;;;;;;;16.45;5.88;;;33.40;99.60;;;;;;5073658;28;20051;-56
2023/07/18 06:41:43;;;;;;;13.35;5.65;;;33.60;98.90;;;;;;5076151;28;20047;-55
2023/07/18 06:44:47;;;;;;;10.63;6.18;;;33.90;98.50;;;;;;5077528;28;20071;-56
2023/07/18 06:47:51;;;;;;;14.68;6.07;;;34.00;97.90;;;;;;5079077;28;20051;-53
2023/07/18 06:50:59;;;;;;;18.08;5.85;;;34.60;97.40;;;;;;5084633;28;20422;-54
2023/07/18 06:54:03;;;;;;;11.77;4.80;;;35.20;96.50;;;;;;5071687;28;20048;-55
2023/07/18 06:57:09;;;;;;;15.00;5.50;;;35.60;95.40;;;;;;5097970;28;20043;-56
2023/07/18 07:00:13;;;;;;;21.20;6.32;;;35.60;96.00;;;;;;5096399;28;20047;-57
2023/07/18 07:03:17;;;;;;;14.90;6.50;;;33.70;96.30;;;;;;5087178;28;20039;-55
2023/07/18 07:06:23;;;;;;;16.25;5.60;;;33.30;97.00;;;;;;5084573;28;20051;-56
2023/07/18 07:09:29;;;;;;;13.73;5.53;;;32.60;98.20;;;;;;5079771;28;20047;-56
2023/07/18 07:12:33;;;;;;;13.50;5.20;;;32.70;98.70;;;;;;5085643;28;20043;-56
2023/07/18 07:15:37;;;;;;;9.90;4.47;;;33.60;98.50;;;;;;5091972;28;20506;-57
2023/07/18 07:18:41;;;;;;;11.45;5.32;;;35.10;97.30;;;;;;5084102;28;20039;-55
2023/07/18 07:21:45;;;;;;;11.23;4.50;;;36.60;95.00;;;;;;5084735;28;20053;-56
2023/07/18 07:24:49;;;;;;;10.65;4.10;;;37.30;94.10;;;;;;5103949;28;20413;-53
2023/07/18 07:27:54;;;;;;;11.40;5.20;;;37.70;92.70;;;;;;5082068;28;20040;-54
2023/07/18 07:31:00;;;;;;;12.90;4.70;;;38.10;92.70;;;;;;5089664;28;20047;-57
2023/07/18 07:34:04;;;;;;;9.38;4.20;;;38.70;91.70;;;;;;5076354;28;20044;-54
2023/07/18 07:37:08;;;;;;;13.85;4.53;;;39.40;91.30;;;;;;5086047;28;20047;-52
2023/07/18 07:40:13;;;;;;;13.05;4.20;;;39.20;91.00;;;;;;5087256;28;20050;-53
2023/07/18 07:43:17;;;;;;;13.20;4.50;;;39.60;90.50;;;;;;5084191;28;20054;-53
2023/07/18 07:46:21;;;;;;;8.40;3.95;;;38.00;90.80;;;;;;5089732;28;20066;-56
2023/07/18 07:49:24;;;;;;;10.20;4.00;;;39.10;90.80;;;;;;5079388;28;20070;-56
2023/07/18 07:52:29;;;;;;;6.50;4.13;;;39.60;90.40;;;;;;5080952;28;20442;-53
2023/07/18 07:55:33;;;;;;;11.63;3.63;;;38.10;91.30;;;;;;5079782;28;20494;-53
2023/07/18 07:58:37;;;;;;;12.32;4.50;;;38.30;90.50;;;;;;5080989;28;20072;-54
2023/07/18 08:01:40;;;;;;;11.48;4.05;;;37.50;91.60;;;;;;5075591;28;20039;-54
2023/07/18 08:04:48;;;;;;;9.63;4.10;;;38.30;90.60;;;;;;5093364;28;20453;-56
2023/07/18 08:07:52;;;;;;;9.18;3.78;;;39.70;89.20;;;;;;5083985;28;20052;-53
2023/07/18 08:10:56;;;;;;;15.63;3.90;;;40.20;87.50;;;;;;5083465;28;20039;-53
2023/07/18 08:14:01;;;;;;;11.80;4.22;;;38.50;88.80;;;;;;5104461;28;20514;-53
2023/07/18 08:17:05;;;;;;;12.00;4.07;;;38.90;89.50;;;;;;5085881;28;20040;-53
2023/07/18 08:20:10;;;;;;;13.65;3.90;;;39.80;89.30;;;;;;5089470;28;20537;-56
2023/07/18 08:23:14;;;;;;;8.65;3.63;;;41.50;86.70;;;;;;5091980;28;20394;-56
2023/07/18 08:26:18;;;;;;;10.35;4.32;;;42.40;84.80;;;;;;5096622;28;20119;-53
2023/07/18 08:29:27;;;;;;;13.25;3.67;;;43.20;83.70;;;;;;5097731;28;20035;-53
2023/07/18 08:32:31;;;;;;;14.77;4.40;;;43.50;82.90;;;;;;5077869;28;20411;-55
2023/07/18 08:35:37;;;;;;;12.88;3.90;;;44.10;81.60;;;;;;5075415;28;20052;-56
2023/07/18 08:38:46;;;;;;;13.63;3.80;;;42.60;82.90;;;;;;5093418;28;20043;-53
2023/07/18 08:41:51;;;;;;;12.73;3.80;;;41.30;84.90;;;;;;5074611;28;20407;-54
2023/07/18 08:44:57;;;;;;;13.00;4.50;;;41.20;84.60;;;;;;5089468;28;20662;-52
2023/07/18 08:48:01;;;;;;;13.02;3.97;;;41.40;84.60;;;;;;5095660;28;20046;-53
2023/07/18 08:51:05;;;;;;;16.52;3.83;;;42.00;84.10;;;;;;5109243;28;20511;-54
2023/07/18 08:54:10;;;;;;;9.77;3.75;;;40.30;84.20;;;;;;5094079;28;20502;-53
2023/07/18 08:57:16;;;;;;;11.57;3.78;;;41.00;84.60;;;;;;5078250;28;20047;-56
2023/07/18 09:00:20;;;;;;;15.15;3.58;;;39.80;85.50;;;;;;5089738;28;20039;-53
2023/07/18 09:03:24;;;;;;;10.55;4.15;;;41.00;83.80;;;;;;5080565;28;20043;-54
2023/07/18 09:06:28;;;;;;;11.52;3.60;;;42.80;81.00;;;;;;5086167;28;20044;-53
2023/07/18 09:09:32;;;;;;;13.38;3.00;;;44.20;79.00;;;;;;5079881;28;20510;-55
2023/07/18 09:12:36;;;;;;;13.95;2.92;;;41.40;77.40;;;;;;5077092;28;20189;-54
2023/07/18 09:15:40;;;;;;;11.73;3.13;;;43.50;75.30;;;;;;5073891;28;20506;-55
2023/07/18 09:18:52;;;;;;;9.60;3.72;;;45.40;72.80;;;;;;5082267;28;20040;-54
2023/07/18 09:22:00;;;;;;;8.55;2.85;;;46.60;73.10;;;;;;5080575;28;20043;-55
2023/07/18 09:25:04;;;;;;;9.07;3.25;;;47.80;71.20;;;;;;5077937;28;20039;-55
2023/07/18 09:28:12;;;;;;;7.30;2.95;;;48.70;69.90;;;;;;5069711;28;20075;-55
2023/07/18 09:31:24;;;;;;;11.73;2.63;;;49.20;67.60;;;;;;5079069;28;20059;-54
2023/07/18 09:34:29;;;;;;;11.43;2.58;;;49.40;67.90;;;;;;5088037;28;20051;-57
2023/07/18 09:37:45;;;;;;;9.75;2.28;;;49.70;68.00;;;;;;5084891;28;20039;-55
2023/07/18 09:40:50;;;;;;;5.30;2.22;;;50.40;64.70;;;;;;5086019;28;20035;-56
2023/07/18 09:43:54;;;;;;;4.05;2.13;;;51.10;63.60;;;;;;5083216;28;20479;-53
2023/07/18 09:47:00;;;;;;;9.85;2.60;;;51.90;61.40;;;;;;5070934;28;20048;-50
2023/07/18 09:50:05;;;;;;;5.97;2.00;;;52.50;60.10;;;;;;5077220;28;20407;-50
2023/07/18 09:53:11;;;;;;;7.80;2.33;;;52.80;59.00;;;;;;5080306;28;20442;-58
2023/07/18 09:56:17;;;;;;;14.35;3.10;;;53.10;59.10;;;;;;5092370;28;20050;-51
2023/07/18 09:59:21;;;;;;;7.70;2.22;;;53.60;58.60;;;;;;5078219;28;20047;-51
2023/07/18 10:02:26;;;;;;;8.65;2.30;;;54.00;58.80;;;;;;5087574;28;20032;-51
2023/07/18 10:05:32;;;;;;;12.88;2.35;;;53.50;59.00;;;;;;5083355;28;20484;-51
2023/07/18 10:08:40;;;;;;;7.53;2.45;;;54.10;58.70;;;;;;5079014;28;20047;-56
2023/07/18 10:12:03;;;;;;;10.88;2.92;;;54.30;57.80;;;;;;5090985;28;20043;-51
2023/07/18 10:15:07;;;;;;;11.80;2.75;;;53.90;58.20;;;;;;5083114;28;20395;-51
2023/07/18 10:18:18;;;;;;;14.75;2.38;;;53.90;58.60;;;;;;5088104;28;20047;-52
2023/07/18 10:21:43;;;;;;;6.38;2.20;;;53.80;59.10;;;;;;5077751;28;20048;-55
2023/07/18 10:24:50;;;;;;;8.35;2.47;;;53.80;59.10;;;;;;5087810;28;20051;-53
2023/07/18 10:27:54;;;;;;;7.75;2.80;;;53.30;58.70;;;;;;5077092;28;20039;-51
2023/07/18 10:30:58;;;;;;;11.50;2.95;;;52.20;58.10;;;;;;5074771;28;20040;-54
2023/07/18 10:34:06;;;;;;;10.25;2.45;;;51.60;58.90;;;;;;5080568;28;20047;-55
2023/07/18 10:37:10;;;;;;;12.17;3.20;;;52.40;58.90;;;;;;5086376;28;20046;-54
2023/07/18 10:40:31;;;;;;;19.00;3.13;;;52.90;58.60;;;;;;5095263;28;20031;-51
2023/07/18 10:43:47;;;;;;;10.60;2.90;;;51.00;59.70;;;;;;5074957;28;20035;-51
2023/07/18 10:46:51;;;;;;;13.15;3.15;;;47.40;61.90;;;;;;5082487;28;20050;-55
2023/07/18 10:49:56;;;;;;;17.20;3.03;;;48.30;61.00;;;;;;5077198;28;20043;-58
2023/07/18 10:53:01;;;;;;;13.38;3.95;;;49.10;61.00;;;;;;5093311;28;20051;-52
2023/07/18 10:56:05;;;;;;;19.33;3.63;;;50.70;60.10;;;;;;5080456;28;20123;-51
2023/07/18 10:59:12;;;;;;;12.40;2.88;;;51.60;60.00;;;;;;5072255;28;20525;-54
2023/07/18 11:02:16;;;;;;;9.73;2.95;;;52.20;58.90;;;;;;5078088;28;20412;-55
2023/07/18 11:05:21;;;;;;;13.93;3.35;;;52.40;59.00;;;;;;5090289;28;20047;-55
2023/07/18 11:08:26;;;;;;;9.25;2.97;;;52.30;59.20;;;;;;5078867;28;20039;-53
2023/07/18 11:11:30;;;;;;;11.73;2.95;;;52.00;59.50;;;;;;5081042;28;20047;-52
2023/07/18 11:14:40;;;;;;;12.23;2.97;;;52.10;59.40;;;;;;5088886;28;20047;-52
2023/07/18 11:17:44;;;;;;;10.77;3.30;;;51.60;59.10;;;;;;5079579;28;20054;-55
2023/07/18 11:20:52;;;;;;;18.17;3.80;;;51.70;58.80;;;;;;5086347;28;20043;-52
2023/07/18 11:23:56;;;;;;;12.95;3.17;;;51.70;58.90;;;;;;5083551;28;20533;-56
2023/07/18 11:27:10;;;;;;;8.18;2.85;;;52.00;58.80;;;;;;5078981;28;20039;-53
2023/07/18 11:30:15;;;;;;;12.70;3.50;;;51.10;59.40;;;;;;5075028;28;20043;-53
2023/07/18 11:33:22;;;;;;;11.80;3.90;;;49.60;59.60;;;;;;5098755;28;20405;-56
2023/07/18 11:36:37;;;;;;;11.38;3.65;;;47.60;61.20;;;;;;5083866;28;20034;-52
2023/07/18 11:39:46;;;;;;;13.05;3.60;;;48.50;60.80;;;;;;5090159;28;20044;-52
2023/07/18 11:42:51;;;;;;;8.02;3.40;;;49.20;60.30;;;;;;5074981;28;20051;-55
2023/07/18 11:45:56;;;;;;;11.60;2.88;;;49.80;59.50;;;;;;5081396;28;20044;-54
2023/07/18 11:49:01;;;;;;;8.63;3.88;;;49.90;60.00;;;;;;5091358;28;20055;-55
2023/07/18 11:52:07;;;;;;;10.75;2.97;;;50.00;60.00;;;;;;5071758;28;20047;-53
2023/07/18 11:55:12;;;;;;;13.80;3.15;;;50.20;59.30;;;;;;5077157;28;20039;-53
2023/07/18 11:58:17;;;;;;;6.47;3.13;;;50.30;59.50;;;;;;5076816;28;20047;-51
2023/07/18 12:01:21;;;;;;;15.52;3.45;;;50.40;59.40;;;;;;5078169;28;20052;-52
2023/07/18 12:04:25;;;;;;;10.52;3.78;;;45.10;60.90;;;;;;5075131;28;20043;-52
2023/07/18 12:07:29;;;;;;;14.23;4.63;;;41.20;66.10;;;;;;5078560;28;20666;-55
2023/07/18 12:10:33;;;;;;;10.95;4.03;;;42.20;68.20;;;;;;5083611;28;20051;-53
2023/07/18 12:13:38;;;;;;;11.15;3.92;;;44.60;66.10;;;;;;5081316;28;20047;-54
2023/07/18 12:16:43;;;;;;;12.65;4.45;;;45.20;64.30;;;;;;5073721;28;20422;-51
2023/07/18 12:19:46;;;;;;;13.88;4.72;;;44.60;65.10;;;;;;5072629;28;20510;-51
2023/07/18 12:22:50;;;;;;;13.80;4.13;;;44.20;65.80;;;;;;5078741;28;20043;-54
2023/07/18 12:25:55;;;;;;;11.23;4.60;;;45.00;66.00;;;;;;5088427;28;20038;-50
2023/07/18 12:28:59;;;;;;;15.15;4.47;;;46.00;66.30;;;;;;5071157;28;20047;-52
2023/07/18 12:32:05;;;;;;;14.50;4.43;;;43.90;66.20;;;;;;5070776;28;20043;-55
2023/07/18 12:35:09;;;;;;;11.25;4.57;;;44.40;66.20;;;;;;5086555;28;20501;-53
2023/07/18 12:38:13;;;;;;;9.95;4.47;;;44.50;65.90;;;;;;5078496;28;20078;-55
2023/07/18 12:41:17;;;;;;;14.63;4.18;;;44.80;66.60;;;;;;5078770;28;20411;-51
2023/07/18 12:44:37;;;;;;;14.18;4.65;;;44.40;66.30;;;;;;5078414;28;20039;-50
2023/07/18 12:47:41;;;;;;;9.90;3.43;;;45.00;66.20;;;;;;5082171;28;20043;-53
2023/07/18 12:50:45;;;;;;;13.77;4.72;;;45.50;67.20;;;;;;5083122;28;20289;-55
2023/07/18 12:53:50;;;;;;;10.52;5.05;;;44.20;67.00;;;;;;5076924;28;20044;-50
2023/07/18 12:56:54;;;;;;;18.23;4.78;;;41.10;68.60;;;;;;5082381;28;20055;-51
2023/07/18 12:59:58;;;;;;;9.30;4.88;;;39.90;73.20;;;;;;5087561;28;20039;-53
2023/07/18 13:03:02;;;;;;;10.15;4.72;;;40.00;74.10;;;;;;5073291;28;20059;-54
2023/07/18 13:06:09;;;;;;;13.52;4.50;;;40.00;72.20;;;;;;5082817;28;20048;-56
2023/07/18 13:09:13;;;;;;;15.32;5.00;;;41.50;70.20;;;;;;5087551;28;20051;-53
2023/07/18 13:12:17;;;;;;;14.07;4.22;;;41.20;70.80;;;;;;5075494;28;20051;-54
2023/07/18 13:15:22;;;;;;;14.38;4.55;;;41.20;71.10;;;;;;5076685;28;20044;-55
2023/07/18 13:18:26;;;;;;;13.75;4.95;;;41.90;70.10;;;;;;5080685;28;20043;-52
2023/07/18 13:21:31;;;;;;;16.42;4.47;;;39.30;72.50;;;;;;5087564;28;20051;-53
2023/07/18 13:24:35;;;;;;;18.85;4.78;;;39.30;72.80;;;;;;5077247;28;20517;-54
2023/07/18 13:27:39;;;;;;;19.38;4.80;;;40.30;72.70;;;;;;5084513;28;20043;-52
2023/07/18 13:30:43;;;;;;;15.25;4.25;;;39.20;71.40;;;;;;5092351;28;20596;-52
2023/07/18 13:33:47;;;;;;;10.05;4.15;;;40.50;72.00;;;;;;5088791;28;20094;-52
2023/07/18 13:36:51;;;;;;;15.02;4.65;;;41.60;70.60;;;;;;5084232;28;20047;-52
2023/07/18 13:39:55;;;;;;;15.25;4.88;;;41.20;71.40;;;;;;5088193;28;20505;-56
2023/07/18 13:42:59;;;;;;;13.55;4.45;;;40.80;70.40;;;;;;5086468;28;20405;-52
2023/07/18 13:46:03;;;;;;;12.98;4.10;;;41.10;72.40;;;;;;5090454;28;20043;-53
2023/07/18 13:49:08;;;;;;;14.10;4.68;;;40.90;70.50;;;;;;5084437;28;20406;-56
2023/07/18 13:52:12;;;;;;;15.45;4.70;;;41.30;70.80;;;;;;5091271;28;20047;-52
2023/07/18 13:55:16;;;;;;;15.43;4.85;;;41.70;70.00;;;;;;5093012;28;20035;-55
2023/07/18 13:58:20;;;;;;;12.43;4.60;;;41.90;69.80;;;;;;5087630;28;20051;-54
2023/07/18 14:01:23;;;;;;;15.45;4.70;;;41.40;68.90;;;;;;5084886;28;20050;-53
2023/07/18 14:04:28;;;;;;;16.75;4.82;;;41.10;70.40;;;;;;5091924;28;20517;-56
2023/07/18 14:07:33;;;;;;;12.10;4.22;;;40.80;70.10;;;;;;5072214;28;20040;-53
2023/07/18 14:10:37;;;;;;;16.50;4.95;;;41.20;70.10;;;;;;5076597;28;20035;-57
2023/07/18 14:13:41;;;;;;;15.52;4.80;;;41.60;70.40;;;;;;5085394;28;20047;-52
2023/07/18 14:16:46;;;;;;;13.00;4.65;;;40.60;68.90;;;;;;5087502;28;20043;-56
2023/07/18 14:19:50;;;;;;;10.57;4.15;;;40.80;70.40;;;;;;5072162;28;20043;-54
2023/07/18 14:22:53;;;;;;;11.15;4.70;;;41.00;69.60;;;;;;5088863;28;20047;-54
2023/07/18 14:25:58;;;;;;;11.60;4.32;;;41.40;69.10;;;;;;5092688;28;20063;-52
2023/07/18 14:29:02;;;;;;;11.48;4.70;;;41.50;68.50;;;;;;5088819;28;20051;-53
2023/07/18 14:32:09;;;;;;;17.23;4.88;;;41.60;69.70;;;;;;5089337;28;20039;-53
2023/07/18 14:35:14;;;;;;;12.55;4.25;;;41.40;70.00;;;;;;5085940;28;20105;-52
2023/07/18 14:38:18;;;;;;;11.30;4.38;;;41.00;70.80;;;;;;5092574;28;20047;-53
2023/07/18 14:41:22;;;;;;;13.65;4.28;;;40.20;72.10;;;;;;5092296;28;20047;-53
2023/07/18 14:44:27;;;;;;;15.82;4.95;;;39.20;72.60;;;;;;5092778;28;20402;-52
2023/07/18 14:47:31;;;;;;;13.02;5.15;;;39.10;74.10;;;;;;5084839;28;20039;-52
2023/07/18 14:50:35;;;;;;;15.25;5.15;;;37.70;75.80;;;;;;5091245;28;20106;-53
2023/07/18 14:53:39;;;;;;;15.40;4.78;;;37.90;76.20;;;;;;5083888;28;20075;-52
2023/07/18 14:56:44;;;;;;;12.65;4.47;;;37.90;74.20;;;;;;5087080;28;20051;-52
2023/07/18 14:59:49;;;;;;;20.10;4.75;;;37.60;75.80;;;;;;5082569;28;20043;-54
2023/07/18 15:02:54;;;;;;;14.82;4.68;;;37.20;75.00;;;;;;5087783;28;20050;-53
2023/07/18 15:06:04;;;;;;;19.95;5.13;;;37.30;73.80;;;;;;5090591;28;20043;-55
2023/07/18 15:09:09;;;;;;;16.33;5.00;;;37.90;70.90;;;;;;5080090;28;20036;-52
2023/07/18 15:12:13;;;;;;;23.58;4.93;;;38.40;71.00;;;;;;5086717;28;20047;-52
2023/07/18 15:15:18;;;;;;;26.83;5.72;;;38.70;70.20;;;;;;5086303;28;20035;-53
2023/07/18 15:18:22;;;;;;;14.68;5.50;;;38.70;71.30;;;;;;5076014;28;20047;-55
2023/07/18 15:21:28;;;;;;;20.85;5.93;;;38.80;72.10;;;;;;5079299;28;20047;-52
2023/07/18 15:24:32;;;;;;;16.15;4.90;;;39.00;71.90;;;;;;5078051;28;20043;-53
2023/07/18 15:27:39;;;;;;;16.75;4.40;;;39.00;71.70;;;;;;5079370;28;20040;-53
2023/07/18 15:30:43;;;;;;;16.27;4.68;;;39.10;70.90;;;;;;5085792;28;20047;-54
2023/07/18 15:33:48;;;;;;;15.85;4.70;;;39.00;72.10;;;;;;5090858;28;20518;-55
2023/07/18 15:36:52;;;;;;;14.18;4.88;;;38.90;71.00;;;;;;5090860;28;20402;-52
2023/07/18 15:39:57;;;;;;;16.20;4.70;;;38.90;71.30;;;;;;5091329;28;20593;-56
2023/07/18 15:43:01;;;;;;;13.23;4.90;;;38.90;71.70;;;;;;5090879;28;20577;-53
2023/07/18 15:46:05;;;;;;;16.33;4.50;;;38.70;70.80;;;;;;5089895;28;20429;-55
2023/07/18 15:49:09;;;;;;;13.52;4.97;;;38.60;70.60;;;;;;5091256;28;20051;-54
2023/07/18 15:52:13;;;;;;;27.13;5.75;;;38.60;71.80;;;;;;5090270;28;20047;-52